Check out our new BloomSky Weather System.

Active alerts


No alerts


Thunder radar  blitzortung!


Rain radar more information rain snow radar


Visit our other weather sites:

Template documentation
and downloads

And another site



Weather Underground History page Text

Daily Summary for October 13, 2017 Units:  English    Metric   Both
« Previous Day
Next Day »
Daily Weekly Monthly Yearly Custom
  High: Low: Average:
Temperature: 93.4 °F 69.8 °F 81 °F
Dew Point: 77.5 °F 69.3 °F 73.1 °F
Humidity: 99 % 52 % 79 %
Wind Speed: 6.0 mph 0.0 mph 0.9 mph
Wind Gust: 9.0 mph - -
Wind:- - SE
Pressure: 30.10 in 29.98 in -
Precipitation: 0.00 in    
Historical Graphs
 
 
Tabular Data for October 13, 2017
Time Temperature Dew Point Pressure Wind Wind Speed Wind Gust Humidity Rainfall Rate (Hourly)
00:02 76.3 °F 72.5 °F 30.04 in Calm   1.0 mph 88 % 0.00 in
00:08 75.9 °F 72.5 °F 30.04 in Calm     89 % 0.00 in
00:13 75.6 °F 72.1 °F 30.04 in Calm     89 % 0.00 in
00:18 75.4 °F 72.3 °F 30.03 in Calm     90 % 0.00 in
00:23 75.0 °F 72.0 °F 30.03 in Calm     90 % 0.00 in
00:28 74.8 °F 71.8 °F 30.03 in Calm     90 % 0.00 in
00:33 74.5 °F 71.6 °F 30.03 in Calm     91 % 0.00 in
00:38 74.3 °F 71.8 °F 30.03 in Calm     92 % 0.00 in
00:43 74.3 °F 71.8 °F 30.03 in Calm     92 % 0.00 in
00:48 74.3 °F 72.1 °F 30.03 in Calm     93 % 0.00 in
00:53 74.5 °F 72.3 °F 30.03 in Calm     93 % 0.00 in
00:58 74.1 °F 71.6 °F 30.03 in Calm     92 % 0.00 in
01:03 73.9 °F 71.4 °F 30.03 in Calm     92 % 0.00 in
01:08 73.9 °F 71.8 °F 30.03 in Calm     93 % 0.00 in
01:13 73.8 °F 71.6 °F 30.03 in Calm     93 % 0.00 in
01:18 73.6 °F 71.4 °F 30.03 in Calm     93 % 0.00 in
01:23 73.6 °F 71.4 °F 30.03 in Calm     93 % 0.00 in
01:28 73.2 °F 71.1 °F 30.04 in Calm     93 % 0.00 in
01:33 73.0 °F 70.9 °F 30.04 in Calm     93 % 0.00 in
01:38 72.7 °F 70.9 °F 30.04 in Calm     94 % 0.00 in
01:43 72.7 °F 70.9 °F 30.04 in Calm     94 % 0.00 in
01:48 72.7 °F 71.2 °F 30.03 in Calm     95 % 0.00 in
01:53 72.7 °F 71.2 °F 30.03 in Calm     95 % 0.00 in
01:58 72.7 °F 71.2 °F 30.03 in Calm     95 % 0.00 in
02:03 72.3 °F 70.9 °F 30.04 in Calm     95 % 0.00 in
02:08 72.5 °F 71.1 °F 30.03 in Calm     95 % 0.00 in
02:13 72.5 °F 71.1 °F 30.04 in Calm     95 % 0.00 in
02:18 72.7 °F 71.4 °F 30.03 in Calm     96 % 0.00 in
02:23 72.7 °F 71.4 °F 30.03 in Calm     96 % 0.00 in
02:28 72.7 °F 71.4 °F 30.03 in Calm     96 % 0.00 in
02:33 72.3 °F 71.1 °F 30.03 in Calm     96 % 0.00 in
02:38 72.3 °F 71.1 °F 30.03 in Calm     96 % 0.00 in
02:43 72.1 °F 70.9 °F 30.03 in Calm     96 % 0.00 in
02:48 72.0 °F 70.7 °F 30.03 in Calm     96 % 0.00 in
02:53 72.0 °F 70.7 °F 30.03 in Calm     96 % 0.00 in
02:58 72.0 °F 70.7 °F 30.03 in Calm     96 % 0.00 in
03:03 71.6 °F 70.3 °F 30.03 in Calm     96 % 0.00 in
03:08 71.6 °F 70.7 °F 30.03 in Calm     97 % 0.00 in
03:13 71.8 °F 70.9 °F 30.03 in Calm     97 % 0.00 in
03:15 71.8 °F 70.9 °F 30.03 in Calm     97 % 0.00 in
03:20 71.8 °F 70.9 °F 30.03 in Calm     97 % 0.00 in
03:25 72.0 °F 71.1 °F 30.03 in Calm     97 % 0.00 in
03:30 72.0 °F 71.1 °F 30.03 in Calm     97 % 0.00 in
03:35 72.0 °F 71.1 °F 30.03 in Calm   1.0 mph 97 % 0.00 in
03:40 71.8 °F 70.9 °F 30.03 in Calm   1.0 mph 97 % 0.00 in
03:45 71.8 °F 70.5 °F 30.03 in Calm     96 % 0.00 in
03:50 71.6 °F 70.7 °F 30.03 in Calm     97 % 0.00 in
03:55 71.4 °F 70.5 °F 30.02 in Calm     97 % 0.00 in
04:00 71.4 °F 70.5 °F 30.02 in Calm     97 % 0.00 in
04:05 71.4 °F 70.5 °F 30.03 in Calm     97 % 0.00 in
04:10 71.4 °F 70.5 °F 30.03 in Calm     97 % 0.00 in
04:15 71.2 °F 70.3 °F 30.03 in Calm     97 % 0.00 in
04:20 71.2 °F 70.3 °F 30.02 in Calm     97 % 0.00 in
04:25 71.2 °F 70.3 °F 30.03 in Calm     97 % 0.00 in
04:30 71.1 °F 70.2 °F 30.03 in Calm     97 % 0.00 in
04:35 70.9 °F 70.0 °F 30.03 in Calm     97 % 0.00 in
04:40 70.9 °F 70.0 °F 30.03 in Calm     97 % 0.00 in
04:45 70.9 °F 70.3 °F 30.03 in Calm     98 % 0.00 in
04:50 70.9 °F 70.3 °F 30.03 in Calm     98 % 0.00 in
04:55 70.9 °F 70.3 °F 30.03 in Calm     98 % 0.00 in
05:00 70.9 °F 70.3 °F 30.03 in Calm     98 % 0.00 in
05:05 70.7 °F 70.2 °F 30.03 in Calm     98 % 0.00 in
05:10 70.7 °F 70.2 °F 30.03 in Calm     98 % 0.00 in
05:15 70.9 °F 70.3 °F 30.03 in Calm     98 % 0.00 in
05:20 70.7 °F 70.2 °F 30.03 in Calm     98 % 0.00 in
05:25 70.5 °F 70.0 °F 30.03 in Calm     98 % 0.00 in
05:30 70.5 °F 70.0 °F 30.04 in Calm     98 % 0.00 in
05:35 70.5 °F 70.0 °F 30.04 in Calm     98 % 0.00 in
05:40 70.5 °F 70.0 °F 30.04 in Calm     98 % 0.00 in
05:41 70.5 °F 70.0 °F 30.04 in Calm     98 % 0.00 in
05:46 70.5 °F 70.0 °F 30.04 in Calm     98 % 0.00 in
05:51 70.3 °F 69.8 °F 30.04 in Calm     98 % 0.00 in
05:56 70.3 °F 69.8 °F 30.04 in Calm     98 % 0.00 in
06:01 70.0 °F 69.4 °F 30.04 in Calm     98 % 0.00 in
06:06 69.8 °F 69.3 °F 30.05 in Calm     98 % 0.00 in
06:11 69.8 °F 69.3 °F 30.04 in Calm     98 % 0.00 in
06:16 70.2 °F 69.8 °F 30.05 in Calm     99 % 0.00 in
06:21 70.3 °F 70.0 °F 30.05 in Calm     99 % 0.00 in
06:26 70.3 °F 70.0 °F 30.05 in Calm     99 % 0.00 in
06:31 70.3 °F 70.0 °F 30.05 in Calm     99 % 0.00 in
06:36 70.3 °F 70.0 °F 30.05 in Calm     99 % 0.00 in
06:41 70.3 °F 70.0 °F 30.05 in Calm     99 % 0.00 in
06:46 70.5 °F 70.2 °F 30.05 in Calm     99 % 0.00 in
06:51 70.5 °F 70.2 °F 30.06 in Calm     99 % 0.00 in
06:56 70.5 °F 70.2 °F 30.06 in Calm     99 % 0.00 in
07:01 70.3 °F 70.0 °F 30.06 in Calm     99 % 0.00 in
07:06 70.3 °F 70.0 °F 30.06 in Calm     99 % 0.00 in
07:11 70.3 °F 70.0 °F 30.06 in Calm     99 % 0.00 in
07:16 70.2 °F 69.8 °F 30.06 in Calm     99 % 0.00 in
07:17 70.2 °F 69.8 °F 30.06 in Calm     99 % 0.00 in
07:22 70.0 °F 69.6 °F 30.07 in Calm     99 % 0.00 in
07:27 70.0 °F 69.6 °F 30.07 in Calm     99 % 0.00 in
07:32 70.0 °F 69.6 °F 30.07 in Calm     99 % 0.00 in
07:37 70.0 °F 69.6 °F 30.07 in Calm     99 % 0.00 in
07:42 70.0 °F 69.6 °F 30.07 in Calm     99 % 0.00 in
07:47 70.2 °F 69.8 °F 30.07 in Calm     99 % 0.00 in
07:52 70.2 °F 69.8 °F 30.07 in Calm     99 % 0.00 in
07:57 70.5 °F 70.2 °F 30.07 in Calm     99 % 0.00 in
08:02 71.1 °F 70.7 °F 30.08 in Calm     99 % 0.00 in
08:07 71.4 °F 71.1 °F 30.08 in Calm     99 % 0.00 in
08:12 71.6 °F 71.2 °F 30.08 in Calm     99 % 0.00 in
08:17 72.0 °F 71.6 °F 30.08 in Calm     99 % 0.00 in
08:22 72.3 °F 72.0 °F 30.08 in Calm     99 % 0.00 in
08:27 72.7 °F 72.3 °F 30.09 in Calm   1.0 mph 99 % 0.00 in
08:32 73.0 °F 72.7 °F 30.09 in Calm   1.0 mph 99 % 0.00 in
08:37 73.2 °F 72.9 °F 30.09 in Calm   1.0 mph 99 % 0.00 in
08:42 73.9 °F 73.4 °F 30.09 in Calm   1.0 mph 98 % 0.00 in
08:47 74.7 °F 74.1 °F 30.09 in WNW 1.0 mph 1.0 mph 98 % 0.00 in
08:52 75.0 °F 74.5 °F 30.09 in WNW 1.0 mph 1.0 mph 98 % 0.00 in
08:57 75.6 °F 74.7 °F 30.09 in Calm   1.0 mph 97 % 0.00 in
09:02 76.3 °F 75.0 °F 30.09 in West 1.0 mph 1.0 mph 96 % 0.00 in
09:07 76.5 °F 74.8 °F 30.09 in Calm   2.0 mph 95 % 0.00 in
09:12 76.8 °F 75.0 °F 30.09 in WNW 2.0 mph 2.0 mph 94 % 0.00 in
09:17 77.4 °F 75.6 °F 30.09 in Calm   2.0 mph 94 % 0.00 in
09:22 78.4 °F 76.6 °F 30.09 in Calm   2.0 mph 94 % 0.00 in
09:27 79.9 °F 76.6 °F 30.09 in Calm   2.0 mph 90 % 0.00 in
09:32 80.8 °F 76.8 °F 30.09 in ESE 1.0 mph 2.0 mph 88 % 0.00 in
09:37 81.1 °F 76.5 °F 30.09 in East 1.0 mph 3.0 mph 86 % 0.00 in
09:42 81.1 °F 76.5 °F 30.09 in Calm   3.0 mph 86 % 0.00 in
09:47 81.7 °F 76.6 °F 30.09 in ENE 2.0 mph 3.0 mph 85 % 0.00 in
09:52 81.9 °F 76.1 °F 30.09 in North 1.0 mph 2.0 mph 83 % 0.00 in
09:57 82.4 °F 76.6 °F 30.09 in NW 1.0 mph 2.0 mph 83 % 0.00 in
10:03 82.9 °F 76.8 °F 30.09 in Calm   3.0 mph 82 % 0.00 in
10:08 83.7 °F 76.8 °F 30.09 in NW 1.0 mph 3.0 mph 80 % 0.00 in
10:13 84.0 °F 77.5 °F 30.09 in Calm   3.0 mph 81 % 0.00 in
10:18 84.7 °F 76.6 °F 30.09 in ENE 1.0 mph 2.0 mph 77 % 0.00 in
10:23 84.7 °F 76.3 °F 30.09 in ENE 1.0 mph 3.0 mph 76 % 0.00 in
10:28 85.5 °F 77.0 °F 30.09 in Calm   3.0 mph 76 % 0.00 in
10:33 85.6 °F 75.9 °F 30.09 in SE 1.0 mph 3.0 mph 73 % 0.00 in
10:38 85.5 °F 76.6 °F 30.09 in South 1.0 mph 3.0 mph 75 % 0.00 in
10:43 85.6 °F 76.5 °F 30.09 in WNW 1.0 mph 4.0 mph 74 % 0.00 in
10:48 85.6 °F 75.9 °F 30.09 in SE 2.0 mph 4.0 mph 73 % 0.00 in
10:53 85.8 °F 76.1 °F 30.09 in Calm   5.0 mph 73 % 0.00 in
10:58 86.5 °F 76.8 °F 30.10 in SSE 3.0 mph 5.0 mph 73 % 0.00 in
11:03 86.5 °F 76.5 °F 30.09 in SSW 4.0 mph 5.0 mph 72 % 0.00 in
11:08 86.7 °F 76.1 °F 30.09 in Calm   4.0 mph 71 % 0.00 in
11:13 87.3 °F 76.3 °F 30.09 in SSE 2.0 mph 4.0 mph 70 % 0.00 in
11:18 87.4 °F 76.8 °F 30.09 in ESE 1.0 mph 4.0 mph 71 % 0.00 in
11:23 87.6 °F 76.1 °F 30.09 in ESE 1.0 mph 6.0 mph 69 % 0.00 in
11:28 88.0 °F 76.1 °F 30.09 in Calm   6.0 mph 68 % 0.00 in
11:33 88.5 °F 77.5 °F 30.09 in Calm   6.0 mph 70 % 0.00 in
11:38 88.5 °F 75.7 °F 30.09 in ESE 3.0 mph 3.0 mph 66 % 0.00 in
11:43 87.4 °F 75.9 °F 30.09 in SW 3.0 mph 8.0 mph 69 % 0.00 in
11:48 88.2 °F 77.2 °F 30.09 in SE 3.0 mph 8.0 mph 70 % 0.00 in
11:53 88.3 °F 76.5 °F 30.09 in ESE 5.0 mph 8.0 mph 68 % 0.00 in
11:58 88.2 °F 76.3 °F 30.09 in ESE 5.0 mph 6.0 mph 68 % 0.00 in
12:03 88.5 °F 76.6 °F 30.09 in SSW 3.0 mph 6.0 mph 68 % 0.00 in
12:08 88.7 °F 75.9 °F 30.08 in ESE 6.0 mph 7.0 mph 66 % 0.00 in
12:13 88.3 °F 75.9 °F 30.08 in SSE 3.0 mph 8.0 mph 67 % 0.00 in
12:18 89.1 °F 76.3 °F 30.08 in ESE 3.0 mph 8.0 mph 66 % 0.00 in
12:23 89.8 °F 75.9 °F 30.08 in ESE 5.0 mph 8.0 mph 64 % 0.00 in
12:28 89.4 °F 76.1 °F 30.08 in SE 3.0 mph 6.0 mph 65 % 0.00 in
12:33 88.9 °F 76.1 °F 30.08 in ESE 2.0 mph 6.0 mph 66 % 0.00 in
12:38 89.1 °F 76.3 °F 30.07 in SW 5.0 mph 6.0 mph 66 % 0.00 in
12:43 88.9 °F 76.1 °F 30.07 in Calm   7.0 mph 66 % 0.00 in
12:48 88.9 °F 75.6 °F 30.07 in South 1.0 mph 7.0 mph 65 % 0.00 in
12:53 89.1 °F 76.3 °F 30.07 in SSE 4.0 mph 7.0 mph 66 % 0.00 in
12:58 89.4 °F 75.2 °F 30.07 in SSE 4.0 mph 7.0 mph 63 % 0.00 in
13:03 89.4 °F 75.2 °F 30.06 in North 1.0 mph 8.0 mph 63 % 0.00 in
13:08 90.1 °F 75.4 °F 30.06 in NW 2.0 mph 8.0 mph 62 % 0.00 in
13:13 90.9 °F 75.0 °F 30.06 in SSE 4.0 mph 8.0 mph 60 % 0.00 in
13:18 90.9 °F 75.6 °F 30.06 in SSW 3.0 mph 6.0 mph 61 % 0.00 in
13:24 90.9 °F 75.6 °F 30.05 in East 3.0 mph 7.0 mph 61 % 0.00 in
13:29 91.2 °F 75.9 °F 30.05 in SSE 2.0 mph 7.0 mph 61 % 0.00 in
13:34 90.9 °F 75.0 °F 30.05 in East 2.0 mph 7.0 mph 60 % 0.00 in
13:39 91.0 °F 75.2 °F 30.04 in ESE 1.0 mph 6.0 mph 60 % 0.00 in
13:44 91.9 °F 74.5 °F 30.04 in South 3.0 mph 6.0 mph 57 % 0.00 in
13:49 92.7 °F 75.7 °F 30.04 in South 5.0 mph 6.0 mph 58 % 0.00 in
13:54 92.7 °F 73.6 °F 30.04 in SSE 2.0 mph 6.0 mph 54 % 0.00 in
13:59 92.8 °F 74.8 °F 30.03 in South 1.0 mph 7.0 mph 56 % 0.00 in
14:04 93.4 °F 75.4 °F 30.03 in SE 2.0 mph 7.0 mph 56 % 0.00 in
14:09 93.0 °F 73.9 °F 30.03 in SE 2.0 mph 7.0 mph 54 % 0.00 in
14:14 92.1 °F 74.1 °F 30.03 in WSW 2.0 mph 7.0 mph 56 % 0.00 in
14:19 92.5 °F 74.5 °F 30.02 in SE 3.0 mph 8.0 mph 56 % 0.00 in
14:24 92.5 °F 74.5 °F 30.02 in East 3.0 mph 8.0 mph 56 % 0.00 in
14:29 92.1 °F 74.1 °F 30.02 in SSE 1.0 mph 8.0 mph 56 % 0.00 in
14:34 92.7 °F 73.6 °F 30.01 in SSE 4.0 mph 5.0 mph 54 % 0.00 in
14:39 92.5 °F 73.4 °F 30.01 in SSE 3.0 mph 7.0 mph 54 % 0.00 in
14:44 92.5 °F 72.9 °F 30.01 in Calm   7.0 mph 53 % 0.00 in
14:49 92.7 °F 73.6 °F 30.01 in ESE 3.0 mph 7.0 mph 54 % 0.00 in
14:54 91.9 °F 72.9 °F 30.01 in SE 2.0 mph 7.0 mph 54 % 0.00 in
14:59 91.8 °F 72.7 °F 30.01 in NNW 2.0 mph 7.0 mph 54 % 0.00 in
15:04 92.1 °F 72.5 °F 30.01 in ESE 5.0 mph 7.0 mph 53 % 0.00 in
15:09 92.5 °F 73.4 °F 30.01 in East 1.0 mph 6.0 mph 54 % 0.00 in
15:14 92.5 °F 72.9 °F 30.01 in ENE 2.0 mph 6.0 mph 53 % 0.00 in
15:20 92.5 °F 73.9 °F 30.00 in SE 4.0 mph 6.0 mph 55 % 0.00 in
15:24 92.5 °F 73.9 °F 30.00 in East 3.0 mph 6.0 mph 55 % 0.00 in
15:30 92.5 °F 72.3 °F 30.00 in East 3.0 mph 6.0 mph 52 % 0.00 in
15:35 91.9 °F 72.3 °F 30.00 in SE 4.0 mph 6.0 mph 53 % 0.00 in
15:40 92.1 °F 72.5 °F 30.00 in East 4.0 mph 9.0 mph 53 % 0.00 in
15:45 92.5 °F 73.4 °F 30.00 in ESE 4.0 mph 9.0 mph 54 % 0.00 in
15:50 92.5 °F 72.9 °F 30.00 in South 3.0 mph 6.0 mph 53 % 0.00 in
15:55 92.7 °F 73.0 °F 30.00 in East 2.0 mph 6.0 mph 53 % 0.00 in
15:57 92.5 °F 73.4 °F 30.00 in Calm   6.0 mph 54 % 0.00 in
16:02 92.8 °F 73.2 °F 30.00 in Calm   5.0 mph 53 % 0.00 in
16:07 93.0 °F 73.4 °F 30.00 in East 1.0 mph 5.0 mph 53 % 0.00 in
16:12 93.0 °F 73.4 °F 30.00 in SE 1.0 mph 4.0 mph 53 % 0.00 in
16:17 92.7 °F 73.0 °F 29.99 in South 5.0 mph 5.0 mph 53 % 0.00 in
16:22 92.5 °F 72.9 °F 29.99 in ENE 3.0 mph 5.0 mph 53 % 0.00 in
16:27 92.7 °F 73.0 °F 29.99 in SSE 2.0 mph 5.0 mph 53 % 0.00 in
16:32 92.5 °F 72.9 °F 29.99 in SSW 1.0 mph 5.0 mph 53 % 0.00 in
16:37 92.1 °F 72.5 °F 29.99 in SE 1.0 mph 4.0 mph 53 % 0.00 in
16:42 92.1 °F 73.6 °F 29.99 in East 1.0 mph 4.0 mph 55 % 0.00 in
16:47 92.1 °F 73.6 °F 29.99 in WNW 1.0 mph 4.0 mph 55 % 0.00 in
16:52 91.9 °F 73.9 °F 29.99 in South 6.0 mph 6.0 mph 56 % 0.00 in
16:57 91.9 °F 73.4 °F 29.99 in SE 2.0 mph 7.0 mph 55 % 0.00 in
17:02 91.8 °F 73.2 °F 29.99 in ESE 2.0 mph 7.0 mph 55 % 0.00 in
17:07 91.6 °F 73.6 °F 29.99 in ENE 3.0 mph 7.0 mph 56 % 0.00 in
17:12 91.6 °F 74.1 °F 29.99 in East 1.0 mph 5.0 mph 57 % 0.00 in
17:17 91.6 °F 74.1 °F 29.99 in Calm   4.0 mph 57 % 0.00 in
17:22 91.4 °F 73.9 °F 29.99 in NE 4.0 mph 5.0 mph 57 % 0.00 in
17:27 90.9 °F 74.1 °F 29.98 in SE 2.0 mph 7.0 mph 58 % 0.00 in
17:32 90.9 °F 74.1 °F 29.98 in NE 3.0 mph 7.0 mph 58 % 0.00 in
17:37 90.7 °F 74.3 °F 29.99 in ESE 2.0 mph 7.0 mph 59 % 0.00 in
17:42 90.5 °F 73.8 °F 29.99 in SE 1.0 mph 7.0 mph 58 % 0.00 in
17:47 90.1 °F 73.9 °F 29.98 in NE 1.0 mph 6.0 mph 59 % 0.00 in
17:52 90.0 °F 73.8 °F 29.98 in East 1.0 mph 6.0 mph 59 % 0.00 in
17:57 90.0 °F 73.2 °F 29.98 in ENE 1.0 mph 6.0 mph 58 % 0.00 in
18:02 89.6 °F 73.4 °F 29.98 in ENE 1.0 mph 4.0 mph 59 % 0.00 in
18:07 89.4 °F 73.2 °F 29.99 in East 1.0 mph 4.0 mph 59 % 0.00 in
18:12 89.2 °F 73.0 °F 29.99 in Calm   4.0 mph 59 % 0.00 in
18:17 89.1 °F 72.9 °F 29.99 in Calm   4.0 mph 59 % 0.00 in
18:22 88.9 °F 73.2 °F 29.99 in Calm   3.0 mph 60 % 0.00 in
18:27 88.7 °F 73.0 °F 29.99 in Calm   3.0 mph 60 % 0.00 in
18:32 88.3 °F 72.7 °F 29.99 in Calm   3.0 mph 60 % 0.00 in
18:37 88.2 °F 73.0 °F 29.99 in Calm   3.0 mph 61 % 0.00 in
18:42 88.0 °F 72.9 °F 29.99 in Calm   3.0 mph 61 % 0.00 in
18:48 87.6 °F 72.5 °F 29.99 in ENE 1.0 mph 2.0 mph 61 % 0.00 in
18:53 87.3 °F 72.7 °F 29.99 in Calm   2.0 mph 62 % 0.00 in
18:58 87.1 °F 72.5 °F 29.99 in Calm   2.0 mph 62 % 0.00 in
19:03 86.7 °F 72.7 °F 29.99 in ENE 1.0 mph 2.0 mph 63 % 0.00 in
19:08 86.4 °F 72.7 °F 29.99 in Calm   2.0 mph 64 % 0.00 in
19:13 86.0 °F 72.3 °F 29.99 in East 1.0 mph 2.0 mph 64 % 0.00 in
19:18 85.8 °F 72.7 °F 29.99 in Calm   2.0 mph 65 % 0.00 in
19:23 85.5 °F 72.9 °F 29.99 in Calm   2.0 mph 66 % 0.00 in
19:28 85.1 °F 72.5 °F 29.99 in Calm   2.0 mph 66 % 0.00 in
19:33 84.9 °F 72.7 °F 30.00 in Calm   2.0 mph 67 % 0.00 in
19:38 84.6 °F 72.9 °F 30.00 in Calm   2.0 mph 68 % 0.00 in
19:43 84.4 °F 72.7 °F 30.00 in East 1.0 mph 2.0 mph 68 % 0.00 in
19:48 84.4 °F 73.0 °F 30.00 in Calm   2.0 mph 69 % 0.00 in
19:53 84.0 °F 72.7 °F 30.00 in Calm   1.0 mph 69 % 0.00 in
19:58 84.0 °F 73.2 °F 30.00 in Calm   1.0 mph 70 % 0.00 in
20:03 83.7 °F 72.9 °F 30.01 in Calm   1.0 mph 70 % 0.00 in
20:08 83.7 °F 73.2 °F 30.01 in SE 1.0 mph 1.0 mph 71 % 0.00 in
20:13 83.7 °F 73.2 °F 30.01 in Calm   3.0 mph 71 % 0.00 in
20:18 83.7 °F 73.2 °F 30.01 in Calm   3.0 mph 71 % 0.00 in
20:23 83.5 °F 73.6 °F 30.01 in Calm   3.0 mph 72 % 0.00 in
20:28 83.3 °F 73.4 °F 30.01 in Calm   3.0 mph 72 % 0.00 in
20:33 83.1 °F 73.6 °F 30.02 in Calm   3.0 mph 73 % 0.00 in
20:38 82.8 °F 73.6 °F 30.02 in ESE 1.0 mph 3.0 mph 74 % 0.00 in
20:43 82.8 °F 73.6 °F 30.02 in Calm   2.0 mph 74 % 0.00 in
20:48 82.6 °F 73.4 °F 30.02 in Calm   2.0 mph 74 % 0.00 in
20:53 82.6 °F 73.8 °F 30.02 in East 1.0 mph 2.0 mph 75 % 0.00 in
20:58 82.4 °F 73.8 °F 30.02 in ESE 1.0 mph 2.0 mph 75 % 0.00 in
21:03 82.2 °F 73.6 °F 30.03 in SE 1.0 mph 2.0 mph 75 % 0.00 in
21:08 82.2 °F 73.9 °F 30.03 in SE 1.0 mph 3.0 mph 76 % 0.00 in
21:13 82.2 °F 73.9 °F 30.03 in East 1.0 mph 3.0 mph 76 % 0.00 in
21:18 82.0 °F 73.8 °F 30.03 in SE 1.0 mph 3.0 mph 76 % 0.00 in
21:23 82.0 °F 74.1 °F 30.03 in East 2.0 mph 5.0 mph 77 % 0.00 in
21:28 82.0 °F 74.5 °F 30.03 in South 2.0 mph 7.0 mph 78 % 0.00 in
21:33 82.0 °F 74.5 °F 30.04 in ENE 6.0 mph 7.0 mph 78 % 0.00 in
21:38 81.9 °F 74.7 °F 30.04 in East 2.0 mph 7.0 mph 79 % 0.00 in
21:43 81.9 °F 74.7 °F 30.04 in East 4.0 mph 7.0 mph 79 % 0.00 in
21:48 81.9 °F 74.7 °F 30.04 in SE 1.0 mph 7.0 mph 79 % 0.00 in
21:53 81.7 °F 74.8 °F 30.04 in East 2.0 mph 5.0 mph 80 % 0.00 in
21:58 81.3 °F 74.5 °F 30.04 in East 2.0 mph 5.0 mph 80 % 0.00 in
22:03 81.3 °F 74.8 °F 30.04 in ESE 2.0 mph 4.0 mph 81 % 0.00 in
22:08 81.1 °F 74.7 °F 30.04 in SE 2.0 mph 4.0 mph 81 % 0.00 in
22:14 81.1 °F 74.7 °F 30.04 in Calm   3.0 mph 81 % 0.00 in
22:19 81.0 °F 75.0 °F 30.04 in ESE 1.0 mph 3.0 mph 82 % 0.00 in
22:22 81.0 °F 75.0 °F 30.04 in ESE 1.0 mph 3.0 mph 82 % 0.00 in
22:26 80.8 °F 74.8 °F 30.04 in Calm   2.0 mph 82 % 0.00 in
22:31 80.6 °F 75.0 °F 30.04 in ESE 1.0 mph 2.0 mph 83 % 0.00 in
22:36 80.4 °F 74.8 °F 30.04 in ESE 1.0 mph 2.0 mph 83 % 0.00 in
22:41 80.2 °F 75.0 °F 30.04 in Calm   1.0 mph 84 % 0.00 in
22:46 80.2 °F 75.0 °F 30.04 in ENE 1.0 mph 2.0 mph 84 % 0.00 in
22:51 80.1 °F 74.8 °F 30.04 in Calm   2.0 mph 84 % 0.00 in
22:56 80.1 °F 75.2 °F 30.04 in ESE 1.0 mph 2.0 mph 85 % 0.00 in
23:01 79.9 °F 75.0 °F 30.04 in Calm   3.0 mph 85 % 0.00 in
23:06 79.9 °F 75.0 °F 30.04 in Calm   3.0 mph 85 % 0.00 in
23:12 79.5 °F 74.7 °F 30.04 in Calm   3.0 mph 85 % 0.00 in
23:16 79.2 °F 74.3 °F 30.04 in Calm   1.0 mph 85 % 0.00 in
23:22 79.0 °F 74.5 °F 30.04 in Calm   1.0 mph 86 % 0.00 in
23:27 78.4 °F 73.9 °F 30.04 in Calm   1.0 mph 86 % 0.00 in
23:32 78.3 °F 74.1 °F 30.04 in Calm   1.0 mph 87 % 0.00 in
23:37 78.1 °F 73.9 °F 30.04 in Calm   1.0 mph 87 % 0.00 in
23:42 77.7 °F 73.9 °F 30.04 in Calm   1.0 mph 88 % 0.00 in
23:47 77.5 °F 74.1 °F 30.04 in Calm   1.0 mph 89 % 0.00 in
23:52 77.4 °F 73.9 °F 30.04 in Calm   1.0 mph 89 % 0.00 in
23:57 77.2 °F 73.8 °F 30.04 in Calm     89 % 0.00 in
Spring, Texas: Villages of Bridgestone
Compliments of Weather Underground - 3.25 mb

Script developed by  Jim McMurry - jmcmurry@mwt.net Adapted for the template by  Wim van der Kuil - Leuven-Template.eu

You find our weather info also at:

UK Metoffice

WeatherCloud

Weather Underground

Mid-South Weather Network

AWEKAS

Citizen Weather Observer Program (CWOP)

HAMweather, WeatherForYou, PWS Weather

Equipment we use:

Weather-station
Davis Vantage Vue

Weather-program
Meteohub

Weather-server
Debian 7.9 x86 (Guest)

Provider
DreamHost

Davis Vantage Vue

Meteohub

Debian 7.9 x86 (Guest)

DreamHost